createdAt,value
2018-06-07T00:00:06.906Z,0.00
2018-06-07T00:01:06.906Z,0.00
2018-06-07T00:02:06.911Z,0.00
2018-06-07T00:03:06.915Z,0.00
2018-06-07T00:04:06.915Z,0.00
2018-06-07T00:05:06.926Z,0.00
2018-06-07T00:06:06.926Z,0.00
2018-06-07T00:07:06.925Z,0.00
2018-06-07T00:08:06.927Z,0.00
2018-06-07T00:09:06.934Z,0.00
2018-06-07T00:10:06.932Z,0.00
2018-06-07T00:11:06.938Z,0.00
2018-06-07T00:12:06.938Z,0.00
2018-06-07T00:13:06.954Z,0.00
2018-06-07T00:14:06.945Z,0.00
2018-06-07T00:15:06.948Z,0.00
2018-06-07T00:16:06.948Z,0.00
2018-06-07T00:17:06.954Z,0.00
2018-06-07T00:18:06.955Z,0.00
2018-06-07T00:19:06.957Z,0.00
2018-06-07T00:20:06.960Z,0.00
2018-06-07T00:21:06.964Z,0.00
2018-06-07T00:22:06.979Z,0.00
2018-06-07T00:23:06.980Z,0.00
2018-06-07T00:24:06.988Z,0.00
2018-06-07T00:25:06.978Z,0.00
2018-06-07T00:26:06.977Z,0.00
2018-06-07T00:27:06.988Z,0.00
2018-06-07T00:28:06.991Z,0.00
2018-06-07T00:29:06.984Z,0.00
2018-06-07T00:30:06.985Z,0.00
2018-06-07T00:31:06.992Z,0.00
2018-06-07T00:32:06.991Z,0.00
2018-06-07T00:33:06.992Z,0.00
2018-06-07T00:34:06.999Z,0.00
2018-06-07T00:35:06.999Z,0.00
2018-06-07T00:36:07.002Z,0.00
2018-06-07T00:37:07.002Z,0.00
2018-06-07T00:38:07.028Z,0.00
2018-06-07T00:39:07.011Z,0.00
2018-06-07T00:40:07.013Z,0.00
2018-06-07T00:41:07.014Z,0.00
2018-06-07T00:42:07.020Z,0.00
2018-06-07T00:43:07.019Z,0.00
2018-06-07T00:44:07.021Z,0.00
2018-06-07T00:45:07.035Z,0.00
2018-06-07T00:46:07.062Z,0.00
2018-06-07T00:47:07.029Z,0.00
2018-06-07T00:48:07.031Z,0.00
2018-06-07T00:49:07.035Z,0.00
2018-06-07T00:50:07.041Z,0.00
2018-06-07T00:51:07.039Z,0.00
2018-06-07T00:52:07.046Z,0.00
2018-06-07T00:53:07.045Z,0.00
2018-06-07T00:54:07.044Z,0.00
2018-06-07T00:55:07.050Z,0.00
2018-06-07T00:56:07.058Z,0.00
2018-06-07T00:57:07.052Z,0.00
2018-06-07T00:58:07.062Z,0.00
2018-06-07T00:59:07.060Z,0.00
2018-06-07T01:00:07.063Z,0.00
2018-06-07T01:01:07.063Z,0.00
2018-06-07T01:02:07.066Z,0.00
2018-06-07T01:03:07.066Z,0.00
2018-06-07T01:04:07.091Z,0.00
2018-06-07T01:05:07.073Z,0.00
2018-06-07T01:06:07.075Z,0.00
2018-06-07T01:07:07.080Z,0.00
2018-06-07T01:08:07.082Z,0.00
2018-06-07T01:09:07.086Z,0.00
2018-06-07T01:10:07.085Z,0.00
2018-06-07T01:11:07.091Z,0.00
2018-06-07T01:12:07.092Z,0.00
2018-06-07T01:13:07.091Z,0.00
2018-06-07T01:14:07.094Z,0.00
2018-06-07T01:15:07.096Z,0.00
2018-06-07T01:16:07.100Z,0.00
2018-06-07T01:17:07.115Z,0.00
2018-06-07T01:18:07.106Z,0.00
2018-06-07T01:19:07.109Z,0.00
2018-06-07T01:20:07.109Z,0.00
2018-06-07T01:21:07.110Z,0.00
2018-06-07T01:22:07.115Z,0.00
2018-06-07T01:23:07.117Z,0.00
2018-06-07T01:24:07.116Z,0.00
2018-06-07T01:25:07.119Z,0.00
2018-06-07T01:26:07.123Z,0.00
2018-06-07T01:27:07.125Z,0.00
2018-06-07T01:28:07.126Z,0.00
2018-06-07T01:29:07.134Z,0.00
2018-06-07T01:30:07.132Z,0.00
2018-06-07T01:31:07.133Z,0.00
2018-06-07T01:32:07.134Z,0.00
2018-06-07T01:33:07.142Z,0.00
2018-06-07T01:34:07.144Z,0.00
2018-06-07T01:35:07.144Z,0.00
2018-06-07T01:36:07.144Z,0.00
2018-06-07T01:37:07.146Z,0.00
2018-06-07T01:38:07.149Z,0.00
2018-06-07T01:39:07.152Z,0.00
2018-06-07T01:40:07.151Z,0.00
2018-06-07T01:41:07.162Z,0.00
2018-06-07T01:42:07.157Z,0.00
2018-06-07T01:43:07.161Z,0.00
2018-06-07T01:44:07.162Z,0.00
2018-06-07T01:45:07.164Z,0.00
2018-06-07T01:46:07.167Z,0.00
2018-06-07T01:47:07.183Z,0.00
2018-06-07T01:48:07.176Z,0.00
2018-06-07T01:49:07.184Z,0.00
2018-06-07T01:50:07.175Z,0.00
2018-06-07T01:51:07.177Z,0.00
2018-06-07T01:52:07.180Z,0.00
2018-06-07T01:53:07.181Z,0.00
2018-06-07T01:54:07.184Z,0.00
2018-06-07T01:55:07.188Z,0.00
2018-06-07T01:56:07.188Z,0.00
2018-06-07T01:57:07.191Z,0.00
2018-06-07T01:58:07.190Z,0.00
2018-06-07T01:59:07.224Z,0.00
2018-06-07T02:00:07.198Z,0.00
2018-06-07T02:01:07.200Z,0.00
2018-06-07T02:02:07.203Z,0.00
2018-06-07T02:03:07.211Z,0.00
2018-06-07T02:04:07.203Z,0.00
2018-06-07T02:05:07.207Z,0.00
2018-06-07T02:06:07.207Z,0.00
2018-06-07T02:07:07.210Z,0.00
2018-06-07T02:08:07.210Z,0.00
2018-06-07T02:09:07.224Z,0.00
2018-06-07T02:10:07.216Z,0.00
2018-06-07T02:11:07.217Z,0.00
2018-06-07T02:12:07.219Z,0.00
2018-06-07T02:13:07.242Z,0.00
2018-06-07T02:14:07.225Z,0.00
2018-06-07T02:15:07.225Z,0.00
2018-06-07T02:16:07.227Z,0.00
2018-06-07T02:17:07.228Z,0.00
2018-06-07T02:18:07.232Z,0.00
2018-06-07T02:19:07.244Z,0.00
2018-06-07T02:20:07.237Z,0.00
2018-06-07T02:21:07.236Z,0.00
2018-06-07T02:22:07.266Z,0.00
2018-06-07T02:23:07.253Z,0.00
2018-06-07T02:24:07.242Z,0.00
2018-06-07T02:25:07.262Z,0.00
2018-06-07T02:26:07.250Z,0.00
2018-06-07T02:27:07.246Z,0.00
2018-06-07T02:28:07.246Z,0.00
2018-06-07T02:29:07.251Z,0.00
2018-06-07T02:30:07.253Z,0.00
2018-06-07T02:31:07.254Z,0.00
2018-06-07T02:32:07.258Z,0.00
2018-06-07T02:33:07.260Z,0.00
2018-06-07T02:34:07.264Z,0.00
2018-06-07T02:35:07.263Z,0.00
2018-06-07T02:36:07.262Z,0.00
2018-06-07T02:37:07.264Z,0.00
2018-06-07T02:38:07.329Z,0.00
2018-06-07T02:39:07.271Z,0.00
2018-06-07T02:40:07.273Z,0.00
2018-06-07T02:41:07.271Z,0.00
2018-06-07T02:42:07.274Z,0.00
2018-06-07T02:43:07.279Z,0.00
2018-06-07T02:44:07.279Z,0.00
2018-06-07T02:45:07.289Z,0.00
2018-06-07T02:46:07.281Z,0.00
2018-06-07T02:47:07.291Z,0.00
2018-06-07T02:48:07.285Z,0.00
2018-06-07T02:49:07.286Z,0.00
2018-06-07T02:50:07.299Z,0.00
2018-06-07T02:51:07.290Z,0.00
2018-06-07T02:52:07.292Z,0.00
2018-06-07T02:53:07.290Z,0.00
2018-06-07T02:54:07.294Z,0.00
2018-06-07T02:55:07.300Z,0.00
2018-06-07T02:56:07.299Z,0.00
2018-06-07T02:57:07.305Z,0.00
2018-06-07T02:58:07.301Z,0.00
2018-06-07T02:59:07.303Z,0.00
2018-06-07T03:00:07.307Z,0.00
2018-06-07T03:01:07.306Z,0.00
2018-06-07T03:02:07.308Z,0.00
2018-06-07T03:03:07.334Z,0.00
2018-06-07T03:04:07.314Z,0.00
2018-06-07T03:05:07.313Z,0.00
2018-06-07T03:06:07.315Z,0.00
2018-06-07T03:07:07.318Z,0.00
2018-06-07T03:08:07.317Z,0.00
2018-06-07T03:09:07.319Z,0.00
2018-06-07T03:10:07.334Z,0.00
2018-06-07T03:11:07.324Z,0.00
2018-06-07T03:12:07.324Z,0.00
2018-06-07T03:13:07.334Z,0.00
2018-06-07T03:14:07.327Z,0.00
2018-06-07T03:15:07.336Z,0.00
2018-06-07T03:16:07.328Z,0.00
2018-06-07T03:17:07.334Z,0.00
2018-06-07T03:18:07.345Z,0.00
2018-06-07T03:19:07.336Z,0.00
2018-06-07T03:20:07.353Z,5.63
2018-06-07T03:21:07.340Z,5.63
2018-06-07T03:22:07.339Z,5.63
2018-06-07T03:23:07.342Z,5.63
2018-06-07T03:24:07.343Z,5.63
2018-06-07T03:25:07.359Z,5.63
2018-06-07T03:26:07.348Z,5.63
2018-06-07T03:27:07.371Z,5.63
2018-06-07T03:28:07.350Z,5.63
2018-06-07T03:29:07.380Z,5.63
2018-06-07T03:30:07.375Z,5.63
2018-06-07T03:31:07.354Z,5.63
2018-06-07T03:32:07.356Z,5.63
2018-06-07T03:33:07.360Z,5.63
2018-06-07T03:34:07.361Z,5.63
2018-06-07T03:35:07.377Z,5.63
2018-06-07T03:36:07.387Z,5.63
2018-06-07T03:37:07.370Z,5.63
2018-06-07T03:38:07.399Z,11.25
2018-06-07T03:39:07.387Z,11.25
2018-06-07T03:40:07.368Z,11.25
2018-06-07T03:41:07.372Z,11.25
2018-06-07T03:42:07.374Z,11.25
2018-06-07T03:43:07.374Z,11.25
2018-06-07T03:44:07.375Z,11.25
2018-06-07T03:45:07.380Z,11.25
2018-06-07T03:46:07.378Z,11.25
2018-06-07T03:47:07.380Z,11.25
2018-06-07T03:48:07.385Z,11.25
2018-06-07T03:49:07.386Z,11.25
2018-06-07T03:50:07.388Z,11.25
2018-06-07T03:51:07.391Z,11.25
2018-06-07T03:52:07.391Z,11.25
2018-06-07T03:53:07.396Z,11.25
2018-06-07T03:54:07.392Z,11.25
2018-06-07T03:55:07.394Z,16.88
2018-06-07T03:56:07.393Z,16.88
2018-06-07T03:57:07.409Z,16.88
2018-06-07T03:58:07.405Z,16.88
2018-06-07T03:59:07.405Z,16.88
2018-06-07T04:00:07.402Z,16.88
2018-06-07T04:01:07.452Z,16.88
2018-06-07T04:02:07.408Z,16.88
2018-06-07T04:03:07.408Z,16.88
2018-06-07T04:04:07.410Z,16.88
2018-06-07T04:05:07.415Z,16.88
2018-06-07T04:06:07.450Z,16.88
2018-06-07T04:07:07.434Z,22.50
2018-06-07T04:08:07.421Z,22.50
2018-06-07T04:09:07.418Z,22.50
2018-06-07T04:10:07.433Z,22.50
2018-06-07T04:11:07.427Z,22.50
2018-06-07T04:12:07.423Z,22.50
2018-06-07T04:13:07.424Z,22.50
2018-06-07T04:14:07.427Z,22.50
2018-06-07T04:15:07.430Z,22.50
2018-06-07T04:16:07.435Z,28.13
2018-06-07T04:17:07.431Z,28.13
2018-06-07T04:18:07.434Z,28.13
2018-06-07T04:19:07.437Z,28.13
2018-06-07T04:20:07.438Z,33.75
2018-06-07T04:21:07.437Z,28.13
2018-06-07T04:22:07.442Z,33.75
2018-06-07T04:23:07.442Z,33.75
2018-06-07T04:24:07.448Z,33.75
2018-06-07T04:25:07.446Z,33.75
2018-06-07T04:26:07.483Z,33.75
2018-06-07T04:27:07.455Z,33.75
2018-06-07T04:28:07.452Z,33.75
2018-06-07T04:29:07.456Z,33.75
2018-06-07T04:30:07.460Z,33.75
2018-06-07T04:31:07.458Z,33.75
2018-06-07T04:32:07.467Z,33.75
2018-06-07T04:33:07.462Z,33.75
2018-06-07T04:34:07.465Z,33.75
2018-06-07T04:35:07.509Z,33.75
2018-06-07T04:36:07.476Z,33.75
2018-06-07T04:37:07.468Z,33.75
2018-06-07T04:38:07.478Z,33.75
2018-06-07T04:39:07.479Z,33.75
2018-06-07T04:40:07.478Z,39.38
2018-06-07T04:41:07.479Z,39.38
2018-06-07T04:42:07.479Z,39.38
2018-06-07T04:43:07.482Z,39.38
2018-06-07T04:44:07.483Z,39.38
2018-06-07T04:45:07.503Z,39.38
2018-06-07T04:46:07.488Z,45.00
2018-06-07T04:47:07.496Z,45.00
2018-06-07T04:48:07.497Z,45.00
2018-06-07T04:49:07.496Z,45.00
2018-06-07T04:50:07.514Z,45.00
2018-06-07T04:51:07.499Z,50.63
2018-06-07T04:52:07.507Z,50.63
2018-06-07T04:53:07.636Z,50.63
2018-06-07T04:54:07.537Z,50.63
2018-06-07T04:55:07.509Z,50.63
2018-06-07T04:56:07.511Z,50.63
2018-06-07T04:57:07.530Z,50.63
2018-06-07T04:58:07.518Z,56.25
2018-06-07T04:59:07.520Z,56.25
2018-06-07T05:00:07.522Z,56.25
2018-06-07T05:01:07.542Z,56.25
2018-06-07T05:02:07.527Z,56.25
2018-06-07T05:03:07.540Z,56.25
2018-06-07T05:04:07.530Z,61.88
2018-06-07T05:05:07.532Z,61.88
2018-06-07T05:06:07.537Z,61.88
2018-06-07T05:07:07.539Z,67.50
2018-06-07T05:08:07.542Z,67.50
2018-06-07T05:09:07.544Z,67.50
2018-06-07T05:10:07.558Z,67.50
2018-06-07T05:11:07.557Z,67.50
2018-06-07T05:12:07.550Z,73.13
2018-06-07T05:13:07.553Z,73.13
2018-06-07T05:14:07.555Z,73.13
2018-06-07T05:15:07.558Z,73.13
2018-06-07T05:16:07.566Z,73.13
2018-06-07T05:17:07.563Z,73.13
2018-06-07T05:18:07.568Z,73.13
2018-06-07T05:19:07.571Z,73.13
2018-06-07T05:20:07.574Z,78.75
2018-06-07T05:21:07.574Z,84.38
2018-06-07T05:22:07.611Z,90.00
2018-06-07T05:23:07.582Z,90.00
2018-06-07T05:24:07.588Z,90.00
2018-06-07T05:25:07.589Z,90.00
2018-06-07T05:26:07.592Z,90.00
2018-06-07T05:27:07.595Z,95.63
2018-06-07T05:28:07.599Z,101.25
2018-06-07T05:29:07.604Z,101.25
2018-06-07T05:30:07.605Z,101.25
2018-06-07T05:31:07.610Z,101.25
2018-06-07T05:32:07.668Z,95.63
2018-06-07T05:33:07.614Z,90.00
2018-06-07T05:34:07.618Z,84.38
2018-06-07T05:35:07.621Z,90.00
2018-06-07T05:36:07.630Z,106.88
2018-06-07T05:37:07.626Z,112.50
2018-06-07T05:38:07.648Z,112.50
2018-06-07T05:39:07.637Z,101.25
2018-06-07T05:40:07.640Z,101.25
2018-06-07T05:41:07.644Z,118.13
2018-06-07T05:42:07.675Z,118.13
2018-06-07T05:43:07.652Z,112.50
2018-06-07T05:44:07.654Z,95.63
2018-06-07T05:45:07.668Z,84.38
2018-06-07T05:46:07.661Z,84.38
2018-06-07T05:47:07.666Z,67.50
2018-06-07T05:48:07.668Z,61.88
2018-06-07T05:49:07.674Z,61.88
2018-06-07T05:50:07.678Z,56.25
2018-06-07T05:51:07.683Z,56.25
2018-06-07T05:52:07.689Z,56.25
2018-06-07T05:53:07.692Z,56.25
2018-06-07T05:54:07.695Z,56.25
2018-06-07T05:55:07.696Z,56.25
2018-06-07T05:56:07.730Z,61.88
2018-06-07T05:57:07.712Z,61.88
2018-06-07T05:58:07.712Z,67.50
2018-06-07T05:59:07.718Z,61.88
2018-06-07T06:00:07.717Z,67.50
2018-06-07T06:01:07.770Z,67.50
2018-06-07T06:02:07.732Z,106.88
2018-06-07T06:03:07.798Z,106.88
2018-06-07T06:04:07.734Z,95.63
2018-06-07T06:05:07.738Z,106.88
2018-06-07T06:06:07.742Z,84.38
2018-06-07T06:07:07.748Z,106.88
2018-06-07T06:08:07.751Z,95.63
2018-06-07T06:09:07.766Z,67.50
2018-06-07T06:10:07.760Z,56.25
2018-06-07T06:11:07.761Z,56.25
2018-06-07T06:12:07.826Z,50.63
2018-06-07T06:13:07.771Z,50.63
2018-06-07T06:14:07.773Z,50.63
2018-06-07T06:15:07.779Z,50.63
2018-06-07T06:16:07.784Z,50.63
2018-06-07T06:17:07.790Z,45.00
2018-06-07T06:18:07.794Z,45.00
2018-06-07T06:19:07.796Z,45.00
2018-06-07T06:20:07.797Z,45.00
2018-06-07T06:21:07.804Z,45.00
2018-06-07T06:22:07.809Z,45.00
2018-06-07T06:23:07.812Z,45.00
2018-06-07T06:24:07.817Z,45.00
2018-06-07T06:25:07.818Z,50.63
2018-06-07T06:26:07.826Z,50.63
2018-06-07T06:27:07.846Z,50.63
2018-06-07T06:28:07.835Z,50.63
2018-06-07T06:29:07.841Z,50.63
2018-06-07T06:30:07.843Z,50.63
2018-06-07T06:31:07.848Z,50.63
2018-06-07T06:32:07.852Z,50.63
2018-06-07T06:33:07.855Z,50.63
2018-06-07T06:34:07.859Z,56.25
2018-06-07T06:35:07.861Z,56.25
2018-06-07T06:36:07.869Z,61.88
2018-06-07T06:37:07.870Z,67.50
2018-06-07T06:38:07.875Z,73.13
2018-06-07T06:39:07.907Z,73.13
2018-06-07T06:40:07.882Z,78.75
2018-06-07T06:41:07.885Z,73.13
2018-06-07T06:42:07.891Z,73.13
2018-06-07T06:43:07.899Z,73.13
2018-06-07T06:44:07.898Z,78.75
2018-06-07T06:45:07.903Z,78.75
2018-06-07T06:46:07.915Z,78.75
2018-06-07T06:47:07.912Z,84.38
2018-06-07T06:48:07.915Z,84.38
2018-06-07T06:49:07.932Z,95.63
2018-06-07T06:50:07.924Z,101.25
2018-06-07T06:51:07.932Z,112.50
2018-06-07T06:52:07.932Z,112.50
2018-06-07T06:53:07.938Z,135.00
2018-06-07T06:54:07.940Z,140.63
2018-06-07T06:55:07.951Z,157.50
2018-06-07T06:56:07.953Z,180.00
2018-06-07T06:57:08.002Z,225.00
2018-06-07T06:58:07.958Z,225.00
2018-06-07T06:59:07.962Z,191.25
2018-06-07T07:00:07.966Z,129.38
2018-06-07T07:01:07.971Z,129.38
2018-06-07T07:02:07.977Z,129.38
2018-06-07T07:03:07.984Z,135.00
2018-06-07T07:04:07.986Z,135.00
2018-06-07T07:05:07.989Z,135.00
2018-06-07T07:06:07.995Z,202.50
2018-06-07T07:07:08.003Z,168.75
2018-06-07T07:08:08.009Z,140.63
2018-06-07T07:09:08.045Z,196.88
2018-06-07T07:10:08.016Z,253.13
2018-06-07T07:11:08.025Z,264.38
2018-06-07T07:12:08.030Z,264.38
2018-06-07T07:13:08.033Z,264.38
2018-06-07T07:14:08.040Z,174.38
2018-06-07T07:15:08.047Z,174.38
2018-06-07T07:16:08.050Z,174.38
2018-06-07T07:17:08.054Z,180.00
2018-06-07T07:18:08.062Z,202.50
2018-06-07T07:19:08.066Z,213.75
2018-06-07T07:20:08.072Z,247.50
2018-06-07T07:21:08.076Z,258.75
2018-06-07T07:22:08.085Z,219.38
2018-06-07T07:23:08.130Z,247.50
2018-06-07T07:24:08.094Z,196.88
2018-06-07T07:25:08.102Z,180.00
2018-06-07T07:26:08.107Z,196.88
2018-06-07T07:27:08.114Z,247.50
2018-06-07T07:28:08.125Z,286.88
2018-06-07T07:29:08.127Z,247.50
2018-06-07T07:30:08.132Z,281.25
2018-06-07T07:31:08.139Z,270.00
2018-06-07T07:32:08.144Z,241.88
2018-06-07T07:33:08.150Z,230.63
2018-06-07T07:34:08.157Z,230.63
2018-06-07T07:35:08.167Z,247.50
2018-06-07T07:36:08.169Z,230.63
2018-06-07T07:37:08.178Z,225.00
2018-06-07T07:38:08.184Z,292.50
2018-06-07T07:39:08.191Z,247.50
2018-06-07T07:40:08.197Z,320.63
2018-06-07T07:41:08.202Z,236.25
2018-06-07T07:42:08.212Z,241.88
2018-06-07T07:43:08.218Z,213.75
2018-06-07T07:44:08.224Z,202.50
2018-06-07T07:45:08.257Z,208.13
2018-06-07T07:46:08.239Z,208.13
2018-06-07T07:47:08.253Z,208.13
2018-06-07T07:48:08.252Z,213.75
2018-06-07T07:49:08.261Z,230.63
2018-06-07T07:50:08.267Z,326.25
2018-06-07T07:51:08.278Z,253.13
2018-06-07T07:52:08.289Z,202.50
2018-06-07T07:53:08.293Z,202.50
2018-06-07T07:54:08.297Z,202.50
2018-06-07T07:55:08.319Z,213.75
2018-06-07T07:56:08.311Z,219.38
2018-06-07T07:57:08.321Z,230.63
2018-06-07T07:58:08.334Z,230.63
2018-06-07T07:59:08.336Z,298.13
2018-06-07T08:00:08.340Z,213.75
2018-06-07T08:01:08.359Z,196.88
2018-06-07T08:02:08.358Z,196.88
2018-06-07T08:03:08.385Z,196.88
2018-06-07T08:04:08.371Z,202.50
2018-06-07T08:05:08.380Z,208.13
2018-06-07T08:06:08.386Z,213.75
2018-06-07T08:07:08.395Z,225.00
2018-06-07T08:08:08.399Z,230.63
2018-06-07T08:09:08.408Z,270.00
2018-06-07T08:10:08.416Z,292.50
2018-06-07T08:11:08.423Z,315.00
2018-06-07T08:12:08.434Z,331.88
2018-06-07T08:13:08.436Z,275.63
2018-06-07T08:14:08.458Z,354.38
2018-06-07T08:15:08.452Z,360.00
2018-06-07T08:16:08.457Z,376.88
2018-06-07T08:17:08.464Z,326.25
2018-06-07T08:18:08.474Z,275.63
2018-06-07T08:19:08.490Z,315.00
2018-06-07T08:20:08.489Z,399.38
2018-06-07T08:21:08.501Z,416.25
2018-06-07T08:22:08.507Z,421.88
2018-06-07T08:23:08.518Z,444.38
2018-06-07T08:24:08.525Z,461.25
2018-06-07T08:25:08.532Z,478.13
2018-06-07T08:26:08.541Z,450.00
2018-06-07T08:27:08.551Z,466.88
2018-06-07T08:28:08.560Z,320.63
2018-06-07T08:29:08.566Z,388.13
2018-06-07T08:30:08.581Z,585.00
2018-06-07T08:31:08.589Z,585.00
2018-06-07T08:32:08.620Z,540.00
2018-06-07T08:33:08.609Z,298.13
2018-06-07T08:34:08.617Z,303.75
2018-06-07T08:35:08.630Z,320.63
2018-06-07T08:36:08.639Z,354.38
2018-06-07T08:37:08.649Z,658.13
2018-06-07T08:38:08.657Z,585.00
2018-06-07T08:39:08.669Z,371.25
2018-06-07T08:40:08.678Z,444.38
2018-06-07T08:41:08.697Z,781.88
2018-06-07T08:42:08.699Z,804.38
2018-06-07T08:43:08.718Z,455.63
2018-06-07T08:44:08.722Z,534.38
2018-06-07T08:45:08.732Z,568.13
2018-06-07T08:46:08.743Z,354.38
2018-06-07T08:47:08.767Z,343.13
2018-06-07T08:48:08.762Z,691.88
2018-06-07T08:49:08.776Z,421.88
2018-06-07T08:50:08.798Z,489.38
2018-06-07T08:51:08.822Z,343.13
2018-06-07T08:52:08.818Z,309.38
2018-06-07T08:53:08.816Z,309.38
2018-06-07T08:54:08.828Z,292.50
2018-06-07T08:55:08.841Z,303.75
2018-06-07T08:56:08.849Z,309.38
2018-06-07T08:57:08.861Z,315.00
2018-06-07T08:58:08.869Z,320.63
2018-06-07T08:59:08.895Z,315.00
2018-06-07T09:00:08.985Z,315.00
2018-06-07T09:01:08.924Z,315.00
2018-06-07T09:02:08.939Z,309.38
2018-06-07T09:03:08.926Z,298.13
2018-06-07T09:04:08.933Z,292.50
2018-06-07T09:05:08.952Z,298.13
2018-06-07T09:06:08.955Z,303.75
2018-06-07T09:07:09.008Z,298.13
2018-06-07T09:08:08.977Z,292.50
2018-06-07T09:09:08.987Z,286.88
2018-06-07T09:10:08.999Z,281.25
2018-06-07T09:11:09.011Z,281.25
2018-06-07T09:12:09.021Z,275.63
2018-06-07T09:13:09.030Z,275.63
2018-06-07T09:14:09.042Z,270.00
2018-06-07T09:15:09.053Z,270.00
2018-06-07T09:16:09.063Z,264.38
2018-06-07T09:17:09.074Z,258.75
2018-06-07T09:18:09.086Z,258.75
2018-06-07T09:19:09.096Z,247.50
2018-06-07T09:20:09.106Z,241.88
2018-06-07T09:21:09.118Z,236.25
2018-06-07T09:22:09.131Z,168.75
2018-06-07T09:23:09.137Z,208.13
2018-06-07T09:24:09.148Z,225.00
2018-06-07T09:25:09.161Z,213.75
2018-06-07T09:26:09.174Z,208.13
2018-06-07T09:27:09.202Z,140.63
2018-06-07T09:28:09.193Z,219.38
2018-06-07T09:29:09.205Z,202.50
2018-06-07T09:30:09.213Z,191.25
2018-06-07T09:31:09.235Z,185.63
2018-06-07T09:32:09.236Z,185.63
2018-06-07T09:33:09.258Z,191.25
2018-06-07T09:34:09.253Z,185.63
2018-06-07T09:35:09.264Z,180.00
2018-06-07T09:36:09.287Z,174.38
2018-06-07T09:37:09.285Z,180.00
2018-06-07T09:38:09.298Z,140.63
2018-06-07T09:39:09.306Z,129.38
2018-06-07T09:40:09.325Z,90.00
2018-06-07T09:41:09.335Z,129.38
2018-06-07T09:42:09.343Z,174.38
2018-06-07T09:43:09.347Z,168.75
2018-06-07T09:44:09.355Z,174.38
2018-06-07T09:45:09.364Z,174.38
2018-06-07T09:46:09.380Z,180.00
2018-06-07T09:47:09.388Z,185.63
2018-06-07T09:48:09.395Z,180.00
2018-06-07T09:49:09.404Z,101.25
2018-06-07T09:50:09.414Z,112.50
2018-06-07T09:51:09.426Z,151.88
2018-06-07T09:52:09.437Z,129.38
2018-06-07T09:53:09.442Z,123.75
2018-06-07T09:54:09.475Z,129.38
2018-06-07T09:55:09.464Z,129.38
2018-06-07T09:56:09.471Z,185.63
2018-06-07T09:57:09.482Z,140.63
2018-06-07T09:58:09.521Z,140.63
2018-06-07T09:59:09.501Z,140.63
2018-06-07T10:00:09.580Z,146.25
2018-06-07T10:01:09.542Z,241.88
2018-06-07T10:02:09.530Z,168.75
2018-06-07T10:03:09.551Z,247.50
2018-06-07T10:04:09.555Z,253.13
2018-06-07T10:05:09.556Z,253.13
2018-06-07T10:06:09.570Z,241.88
2018-06-07T10:07:09.574Z,225.00
2018-06-07T10:08:09.592Z,213.75
2018-06-07T10:09:09.597Z,219.38
2018-06-07T10:10:09.605Z,202.50
2018-06-07T10:11:09.613Z,230.63
2018-06-07T10:12:09.621Z,236.25
2018-06-07T10:13:09.635Z,236.25
2018-06-07T10:14:09.639Z,230.63
2018-06-07T10:15:09.649Z,236.25
2018-06-07T10:16:09.709Z,241.88
2018-06-07T10:17:09.669Z,247.50
2018-06-07T10:18:09.679Z,241.88
2018-06-07T10:19:09.715Z,236.25
2018-06-07T10:20:09.694Z,219.38
2018-06-07T10:21:09.708Z,208.13
2018-06-07T10:22:09.717Z,202.50
2018-06-07T10:23:09.727Z,191.25
2018-06-07T10:24:09.738Z,180.00
2018-06-07T10:25:09.747Z,163.13
2018-06-07T10:26:09.757Z,78.75
2018-06-07T10:27:09.763Z,73.13
2018-06-07T10:28:09.774Z,73.13
2018-06-07T10:29:09.843Z,73.13
2018-06-07T10:30:09.792Z,73.13
2018-06-07T10:31:09.809Z,78.75
2018-06-07T10:32:09.815Z,78.75
2018-06-07T10:33:09.823Z,78.75
2018-06-07T10:34:09.831Z,78.75
2018-06-07T10:35:09.840Z,78.75
2018-06-07T10:36:09.850Z,84.38
2018-06-07T10:37:09.860Z,90.00
2018-06-07T10:38:09.876Z,95.63
2018-06-07T10:39:09.882Z,95.63
2018-06-07T10:40:09.889Z,95.63
2018-06-07T10:41:09.900Z,90.00
2018-06-07T10:42:09.906Z,84.38
2018-06-07T10:43:09.925Z,78.75
2018-06-07T10:44:09.925Z,78.75
2018-06-07T10:45:09.940Z,73.13
2018-06-07T10:46:09.943Z,73.13
2018-06-07T10:47:09.952Z,106.88
2018-06-07T10:48:09.959Z,157.50
2018-06-07T10:49:09.968Z,123.75
2018-06-07T10:50:09.993Z,146.25
2018-06-07T10:51:09.986Z,163.13
2018-06-07T10:52:10.040Z,106.88
2018-06-07T10:53:10.001Z,151.88
2018-06-07T10:54:10.010Z,146.25
2018-06-07T10:55:10.036Z,73.13
2018-06-07T10:56:10.025Z,73.13
2018-06-07T10:57:10.036Z,67.50
2018-06-07T10:58:10.041Z,67.50
2018-06-07T10:59:10.051Z,61.88
2018-06-07T11:00:10.061Z,56.25
2018-06-07T11:01:10.081Z,56.25
2018-06-07T11:02:10.092Z,56.25
2018-06-07T11:03:10.086Z,61.88
2018-06-07T11:04:10.088Z,61.88
2018-06-07T11:05:10.107Z,56.25
2018-06-07T11:06:10.111Z,50.63
2018-06-07T11:07:10.113Z,45.00
2018-06-07T11:08:10.120Z,45.00
2018-06-07T11:09:10.127Z,39.38
2018-06-07T11:10:10.134Z,39.38
2018-06-07T11:11:10.145Z,33.75
2018-06-07T11:12:10.151Z,33.75
2018-06-07T11:13:10.170Z,28.13
2018-06-07T11:14:10.175Z,28.13
2018-06-07T11:15:10.172Z,28.13
2018-06-07T11:16:10.177Z,22.50
2018-06-07T11:17:10.189Z,22.50
2018-06-07T11:18:10.192Z,22.50
2018-06-07T11:19:10.200Z,22.50
2018-06-07T11:20:10.205Z,22.50
2018-06-07T11:21:10.226Z,22.50
2018-06-07T11:22:10.222Z,22.50
2018-06-07T11:23:10.230Z,22.50
2018-06-07T11:24:10.233Z,22.50
2018-06-07T11:25:10.239Z,28.13
2018-06-07T11:26:10.248Z,28.13
2018-06-07T11:27:10.252Z,28.13
2018-06-07T11:28:10.257Z,28.13
2018-06-07T11:29:10.266Z,33.75
2018-06-07T11:30:10.269Z,39.38
2018-06-07T11:31:10.276Z,39.38
2018-06-07T11:32:10.281Z,33.75
2018-06-07T11:33:10.286Z,33.75
2018-06-07T11:34:10.294Z,28.13
2018-06-07T11:35:10.300Z,28.13
2018-06-07T11:36:10.303Z,22.50
2018-06-07T11:37:10.309Z,22.50
2018-06-07T11:38:10.322Z,22.50
2018-06-07T11:39:10.320Z,28.13
2018-06-07T11:40:10.326Z,28.13
2018-06-07T11:41:10.334Z,33.75
2018-06-07T11:42:10.336Z,45.00
2018-06-07T11:43:10.342Z,45.00
2018-06-07T11:44:10.350Z,45.00
2018-06-07T11:45:10.355Z,45.00
2018-06-07T11:46:10.360Z,39.38
2018-06-07T11:47:10.371Z,39.38
2018-06-07T11:48:10.371Z,39.38
2018-06-07T11:49:10.372Z,45.00
2018-06-07T11:50:10.384Z,50.63
2018-06-07T11:51:10.382Z,50.63
2018-06-07T11:52:10.389Z,56.25
2018-06-07T11:53:10.403Z,67.50
2018-06-07T11:54:10.398Z,73.13
2018-06-07T11:55:10.403Z,78.75
2018-06-07T11:56:10.406Z,90.00
2018-06-07T11:57:10.419Z,90.00
2018-06-07T11:58:10.418Z,101.25
2018-06-07T11:59:10.421Z,106.88
2018-06-07T12:00:10.426Z,106.88
2018-06-07T12:01:10.431Z,106.88
2018-06-07T12:02:10.435Z,106.88
2018-06-07T12:03:10.443Z,106.88
2018-06-07T12:04:10.446Z,106.88
2018-06-07T12:05:10.451Z,106.88
2018-06-07T12:06:10.454Z,106.88
2018-06-07T12:07:10.463Z,106.88
2018-06-07T12:08:10.473Z,106.88
2018-06-07T12:09:10.470Z,106.88
2018-06-07T12:10:10.549Z,101.25
2018-06-07T12:11:11.555Z,95.63
2018-06-07T12:12:10.485Z,95.63
2018-06-07T12:13:10.491Z,95.63
2018-06-07T12:14:10.495Z,95.63
2018-06-07T12:15:10.591Z,95.63
2018-06-07T12:16:11.305Z,101.25
2018-06-07T12:17:10.512Z,101.25
2018-06-07T12:18:10.523Z,101.25
2018-06-07T12:19:10.522Z,95.63
2018-06-07T12:20:10.525Z,95.63
2018-06-07T12:21:10.530Z,95.63
2018-06-07T12:22:10.537Z,95.63
2018-06-07T12:23:10.540Z,95.63
2018-06-07T12:24:10.545Z,95.63
2018-06-07T12:25:10.923Z,95.63
2018-06-07T12:26:10.557Z,95.63
2018-06-07T12:27:10.569Z,95.63
2018-06-07T12:28:10.563Z,95.63
2018-06-07T12:29:10.572Z,95.63
2018-06-07T12:30:10.577Z,90.00
2018-06-07T12:31:10.582Z,90.00
2018-06-07T12:32:10.622Z,90.00
2018-06-07T12:33:10.591Z,90.00
2018-06-07T12:34:10.599Z,90.00
2018-06-07T12:35:10.604Z,90.00
2018-06-07T12:36:10.608Z,90.00
2018-06-07T12:37:10.619Z,78.75
2018-06-07T12:38:10.619Z,84.38
2018-06-07T12:39:10.625Z,78.75
2018-06-07T12:40:10.709Z,78.75
2018-06-07T12:41:10.637Z,78.75
2018-06-07T12:42:10.640Z,78.75
2018-06-07T12:43:10.648Z,84.38
2018-06-07T12:44:10.651Z,84.38
2018-06-07T12:45:10.656Z,90.00
2018-06-07T12:46:10.661Z,90.00
2018-06-07T12:47:10.667Z,95.63
2018-06-07T12:48:10.669Z,95.63
2018-06-07T12:49:10.680Z,101.25
2018-06-07T12:50:10.689Z,106.88
2018-06-07T12:51:10.688Z,106.88